createdAt,value
2022-11-29T00:01:04.859Z,22.38
2022-11-29T00:03:31.919Z,22.98
2022-11-29T00:06:08.509Z,23.85
2022-11-29T00:08:36.298Z,23.05
2022-11-29T00:11:07.719Z,23.25
2022-11-29T00:13:34.405Z,22.30
2022-11-29T00:16:05.356Z,23.27
2022-11-29T00:18:31.973Z,21.50
2022-11-29T00:20:58.893Z,22.75
2022-11-29T00:23:26.121Z,22.27
2022-11-29T00:25:52.750Z,21.65
2022-11-29T00:28:19.273Z,23.42
2022-11-29T00:30:45.856Z,22.77
2022-11-29T00:33:12.402Z,22.45
2022-11-29T00:35:38.957Z,22.55
2022-11-29T00:38:05.484Z,22.00
2022-11-29T00:40:32.065Z,22.98
2022-11-29T00:42:58.550Z,21.58
2022-11-29T00:45:25.033Z,23.15
2022-11-29T00:47:51.542Z,22.70
2022-11-29T00:50:18.053Z,22.52
2022-11-29T00:52:44.639Z,23.77
2022-11-29T00:55:11.114Z,21.67
2022-11-29T00:57:37.664Z,22.52
2022-11-29T01:00:04.849Z,22.63
2022-11-29T01:02:31.474Z,23.58
2022-11-29T01:04:58.064Z,22.65
2022-11-29T01:07:24.629Z,23.02
2022-11-29T01:09:51.279Z,23.73
2022-11-29T01:12:17.806Z,22.45
2022-11-29T01:14:44.839Z,22.67
2022-11-29T01:17:11.625Z,22.33
2022-11-29T01:19:38.941Z,22.90
2022-11-29T01:22:05.627Z,22.45
2022-11-29T01:24:32.194Z,22.17
2022-11-29T01:26:58.684Z,23.50
2022-11-29T01:29:25.294Z,23.05
2022-11-29T01:31:51.805Z,24.55
2022-11-29T01:34:18.393Z,23.30
2022-11-29T01:36:44.939Z,23.20
2022-11-29T01:39:11.469Z,24.77
2022-11-29T01:41:38.079Z,23.45
2022-11-29T01:44:13.430Z,22.85
2022-11-29T01:46:42.443Z,24.05
2022-11-29T01:49:15.302Z,24.17
2022-11-29T01:51:50.365Z,22.73
2022-11-29T01:54:17.604Z,22.80
2022-11-29T01:56:47.073Z,23.60
2022-11-29T01:59:18.843Z,23.95
2022-11-29T02:01:45.496Z,24.00
2022-11-29T02:04:12.271Z,23.17
2022-11-29T02:06:39.764Z,23.35
2022-11-29T02:09:18.905Z,24.00
2022-11-29T02:12:02.911Z,22.77
2022-11-29T02:14:47.382Z,22.25
2022-11-29T02:17:51.105Z,23.13
2022-11-29T02:20:42.548Z,22.30
2022-11-29T02:23:43.287Z,22.80
2022-11-29T02:26:38.702Z,23.20
2022-11-29T02:29:39.294Z,21.58
2022-11-29T02:32:49.541Z,21.10
2022-11-29T02:35:16.078Z,22.92
2022-11-29T02:38:00.175Z,24.70
2022-11-29T02:40:26.710Z,24.65
2022-11-29T02:43:14.821Z,24.90
2022-11-29T02:46:00.672Z,23.65
2022-11-29T02:48:42.477Z,25.42
2022-11-29T02:51:20.959Z,25.48
2022-11-29T02:53:57.948Z,24.83
2022-11-29T02:56:37.551Z,24.08
2022-11-29T02:59:20.622Z,23.83
2022-11-29T03:02:02.001Z,23.85
2022-11-29T03:04:38.029Z,22.85
2022-11-29T03:07:20.498Z,24.02
2022-11-29T03:10:21.593Z,24.98
2022-11-29T03:12:51.300Z,22.75
2022-11-29T03:15:33.010Z,23.13
2022-11-29T03:18:14.749Z,23.33
2022-11-29T03:20:50.138Z,23.38
2022-11-29T03:23:20.031Z,24.35
2022-11-29T03:25:56.656Z,24.50
2022-11-29T03:28:23.321Z,24.80
2022-11-29T03:31:19.012Z,24.63
2022-11-29T03:34:18.094Z,24.95
2022-11-29T03:36:44.586Z,24.80
2022-11-29T03:39:33.224Z,23.83
2022-11-29T03:42:03.379Z,25.00
2022-11-29T03:45:04.978Z,25.00
2022-11-29T03:47:40.089Z,25.05
2022-11-29T03:50:13.312Z,25.38
2022-11-29T03:52:42.566Z,26.52
2022-11-29T03:55:29.376Z,24.35
2022-11-29T03:58:21.736Z,25.83
2022-11-29T04:00:48.257Z,25.23
2022-11-29T04:03:45.594Z,24.88
2022-11-29T04:06:36.987Z,24.70
2022-11-29T04:09:21.519Z,24.52
2022-11-29T04:12:16.081Z,23.95
2022-11-29T04:15:19.482Z,25.80
2022-11-29T04:18:15.554Z,24.92
2022-11-29T04:21:26.686Z,25.35
2022-11-29T04:24:00.136Z,25.42
2022-11-29T04:26:44.916Z,25.65
2022-11-29T04:29:17.241Z,25.70
2022-11-29T04:32:15.067Z,24.58
2022-11-29T04:35:02.726Z,23.73
2022-11-29T04:38:04.522Z,24.45
2022-11-29T04:40:56.017Z,24.95
2022-11-29T04:43:40.775Z,24.05
2022-11-29T04:46:07.257Z,25.15
2022-11-29T04:48:52.658Z,25.08
2022-11-29T04:51:49.200Z,25.02
2022-11-29T04:54:25.812Z,24.48
2022-11-29T04:57:21.201Z,24.20
2022-11-29T04:59:57.488Z,24.80
2022-11-29T05:02:32.378Z,25.92
2022-11-29T05:05:04.753Z,23.75
2022-11-29T05:07:54.976Z,24.25
2022-11-29T05:10:31.964Z,24.63
2022-11-29T05:13:20.412Z,24.98
2022-11-29T05:16:15.237Z,25.35
2022-11-29T05:18:47.433Z,26.75
2022-11-29T05:21:25.054Z,25.45
2022-11-29T05:24:07.758Z,24.58
2022-11-29T05:26:47.909Z,26.25
2022-11-29T05:29:24.542Z,24.92
2022-11-29T05:32:25.570Z,26.08
2022-11-29T05:35:23.112Z,25.08
2022-11-29T05:37:53.028Z,24.02
2022-11-29T05:40:44.423Z,24.90
2022-11-29T05:43:36.150Z,26.02
2022-11-29T05:46:18.666Z,25.80
2022-11-29T05:49:22.958Z,25.08
2022-11-29T05:52:09.245Z,28.35
2022-11-29T05:54:56.456Z,25.17
2022-11-29T05:57:41.140Z,27.02
2022-11-29T06:00:11.743Z,25.27
2022-11-29T06:02:56.352Z,25.27
2022-11-29T06:05:49.093Z,27.23
2022-11-29T06:08:29.897Z,26.10
2022-11-29T06:14:08.048Z,26.50
2022-11-29T06:16:34.639Z,26.38
2022-11-29T06:19:32.326Z,26.63
2022-11-29T06:22:20.987Z,28.35
2022-11-29T06:25:16.841Z,27.73
2022-11-29T06:27:59.093Z,27.90
2022-11-29T06:31:02.203Z,27.50
2022-11-29T06:33:43.698Z,25.17
2022-11-29T06:36:14.748Z,26.10
2022-11-29T06:38:41.961Z,26.48
2022-11-29T06:41:14.543Z,26.60
2022-11-29T06:43:41.421Z,26.25
2022-11-29T06:46:32.824Z,26.27
2022-11-29T06:49:03.960Z,27.10
2022-11-29T06:51:40.654Z,28.98
2022-11-29T06:54:25.218Z,26.33
2022-11-29T06:57:06.283Z,26.55
2022-11-29T06:59:37.912Z,26.85
2022-11-29T07:02:22.629Z,26.95
2022-11-29T07:05:07.750Z,28.65
2022-11-29T07:07:35.197Z,27.13
2022-11-29T07:10:06.657Z,28.40
2022-11-29T07:12:36.346Z,27.90
2022-11-29T07:15:03.307Z,26.65
2022-11-29T07:17:48.813Z,27.67
2022-11-29T07:20:39.813Z,27.80
2022-11-29T07:23:50.913Z,27.85
2022-11-29T07:26:41.477Z,27.55
2022-11-29T07:29:19.718Z,28.05
2022-11-29T07:32:01.823Z,27.75
2022-11-29T07:34:54.826Z,27.02
2022-11-29T07:37:34.903Z,28.30
2022-11-29T07:40:18.199Z,27.55
2022-11-29T07:42:50.886Z,29.27
2022-11-29T07:45:36.109Z,31.30
2022-11-29T07:48:02.810Z,29.90
2022-11-29T07:50:30.693Z,31.75
2022-11-29T07:52:57.736Z,31.92
2022-11-29T07:55:25.962Z,28.90
2022-11-29T07:57:53.509Z,30.20
2022-11-29T08:00:20.981Z,30.42
2022-11-29T08:02:49.121Z,28.88
2022-11-29T08:05:16.055Z,29.35
2022-11-29T08:07:42.837Z,28.17
2022-11-29T08:10:15.616Z,27.33
2022-11-29T08:12:47.583Z,29.65
2022-11-29T08:15:14.697Z,30.23
2022-11-29T08:17:41.310Z,28.63
2022-11-29T08:20:09.347Z,27.27
2022-11-29T08:22:36.036Z,27.70
2022-11-29T08:25:03.044Z,28.73
2022-11-29T08:27:29.670Z,28.73
2022-11-29T08:29:56.190Z,28.23
2022-11-29T08:32:22.899Z,27.85
2022-11-29T08:34:49.530Z,30.15
2022-11-29T08:37:16.072Z,29.17
2022-11-29T08:39:43.108Z,29.73
2022-11-29T08:42:09.986Z,28.83
2022-11-29T08:44:36.782Z,27.10
2022-11-29T08:47:22.147Z,28.70
2022-11-29T08:50:04.167Z,29.42
2022-11-29T08:52:55.018Z,28.75
2022-11-29T08:57:51.183Z,28.13
2022-11-29T09:00:19.377Z,29.90
2022-11-29T09:02:45.950Z,29.80
2022-11-29T09:05:12.606Z,29.17
2022-11-29T09:07:39.382Z,30.15
2022-11-29T09:10:08.460Z,32.28
2022-11-29T09:12:36.104Z,33.33
2022-11-29T09:15:05.312Z,33.22
2022-11-29T09:17:31.872Z,34.75
2022-11-29T09:19:58.463Z,36.92
2022-11-29T09:22:25.020Z,37.35
2022-11-29T09:24:51.809Z,36.75
2022-11-29T09:27:18.385Z,36.20
2022-11-29T09:29:44.872Z,34.55
2022-11-29T09:32:11.529Z,35.63
2022-11-29T09:34:38.065Z,37.42
2022-11-29T09:37:05.250Z,37.22
2022-11-29T09:39:31.955Z,39.97
2022-11-29T09:42:27.274Z,38.10
2022-11-29T09:45:18.540Z,38.33
2022-11-29T09:48:31.025Z,37.80
2022-11-29T09:51:24.218Z,35.78
2022-11-29T09:54:13.714Z,35.50
2022-11-29T09:56:58.796Z,37.85
2022-11-29T09:59:28.104Z,38.10
2022-11-29T10:02:04.714Z,38.00
2022-11-29T10:04:40.169Z,39.80
2022-11-29T10:07:33.458Z,40.15
2022-11-29T10:10:07.115Z,38.65
2022-11-29T10:12:46.964Z,38.60
2022-11-29T10:15:22.113Z,40.33
2022-11-29T10:17:55.022Z,37.75
2022-11-29T10:20:27.429Z,40.92
2022-11-29T10:23:26.198Z,38.60
2022-11-29T10:25:55.745Z,41.72
2022-11-29T10:28:26.421Z,39.50
2022-11-29T10:33:21.853Z,39.55
2022-11-29T10:35:51.122Z,39.17
2022-11-29T10:38:33.011Z,39.38
2022-11-29T10:41:14.810Z,38.17
2022-11-29T10:43:43.036Z,38.95
2022-11-29T10:46:20.413Z,40.38
2022-11-29T10:48:47.198Z,40.67
2022-11-29T10:51:17.246Z,40.67
2022-11-29T10:53:45.539Z,38.75
2022-11-29T10:56:35.665Z,40.17
2022-11-29T10:59:06.302Z,40.00
2022-11-29T11:01:38.343Z,39.13
2022-11-29T11:04:09.905Z,39.83
2022-11-29T11:06:51.470Z,37.92
2022-11-29T11:09:27.870Z,40.25
2022-11-29T11:11:57.872Z,39.42
2022-11-29T11:14:28.845Z,40.20
2022-11-29T11:16:55.657Z,40.70
2022-11-29T11:19:27.846Z,40.17
2022-11-29T11:22:02.882Z,39.28
2022-11-29T11:24:33.490Z,39.95
2022-11-29T11:29:33.082Z,37.55
2022-11-29T11:32:00.699Z,40.05
2022-11-29T11:34:34.591Z,38.92
2022-11-29T11:37:16.481Z,39.05
2022-11-29T11:39:45.420Z,38.05
2022-11-29T11:42:37.691Z,43.17
2022-11-29T11:45:13.280Z,42.65
2022-11-29T11:47:45.308Z,41.80
2022-11-29T11:50:16.909Z,44.75
2022-11-29T11:52:50.737Z,41.10
2022-11-29T11:55:17.478Z,40.58
2022-11-29T11:57:44.278Z,40.63
2022-11-29T12:03:53.572Z,38.35
2022-11-29T12:06:28.947Z,38.78
2022-11-29T12:09:06.803Z,40.15
2022-11-29T12:12:00.394Z,40.58
2022-11-29T12:15:07.579Z,38.88
2022-11-29T12:17:49.273Z,39.40
2022-11-29T12:20:39.604Z,40.55
2022-11-29T12:23:09.335Z,39.95
2022-11-29T12:25:58.528Z,41.00
2022-11-29T12:28:40.504Z,39.50
2022-11-29T12:31:25.600Z,41.25
2022-11-29T12:34:22.231Z,42.28
2022-11-29T12:37:08.019Z,41.38
2022-11-29T12:39:46.250Z,40.08
2022-11-29T12:42:41.676Z,41.50
2022-11-29T12:45:18.318Z,41.72
2022-11-29T12:48:13.631Z,41.97
2022-11-29T12:51:04.876Z,40.72
2022-11-29T12:53:43.480Z,40.75
2022-11-29T12:56:34.674Z,41.70
2022-11-29T12:59:16.552Z,42.20
2022-11-29T13:01:58.287Z,41.08
2022-11-29T13:04:38.170Z,42.45
2022-11-29T13:07:12.988Z,40.53
2022-11-29T13:09:57.013Z,39.67
2022-11-29T13:12:39.732Z,39.75
2022-11-29T13:15:06.398Z,39.05
2022-11-29T13:17:41.273Z,39.92
2022-11-29T13:20:25.312Z,39.28
2022-11-29T13:22:55.050Z,39.40
2022-11-29T13:25:28.063Z,38.07
2022-11-29T13:27:58.715Z,39.35
2022-11-29T13:33:25.091Z,35.10
2022-11-29T13:36:00.598Z,36.35
2022-11-29T13:38:36.001Z,35.17
2022-11-29T13:41:28.279Z,33.33
2022-11-29T13:44:02.830Z,34.15
2022-11-29T13:46:41.224Z,33.35
2022-11-29T13:49:23.717Z,34.05
2022-11-29T13:52:04.931Z,34.33
2022-11-29T13:54:34.073Z,34.17
2022-11-29T13:57:10.364Z,35.28
2022-11-29T13:59:45.766Z,33.50
2022-11-29T14:02:32.025Z,31.65
2022-11-29T14:04:58.836Z,31.88
2022-11-29T14:07:25.508Z,32.58
2022-11-29T14:10:01.301Z,32.63
2022-11-29T14:12:35.867Z,32.67
2022-11-29T14:15:14.449Z,32.03
2022-11-29T14:17:53.500Z,31.65
2022-11-29T14:20:28.129Z,32.42
2022-11-29T14:23:07.662Z,32.33
2022-11-29T14:25:52.623Z,30.52
2022-11-29T14:28:22.459Z,30.42
2022-11-29T14:30:49.894Z,30.50
2022-11-29T14:33:47.509Z,29.58
2022-11-29T14:36:30.004Z,30.05
2022-11-29T14:39:30.536Z,28.10
2022-11-29T14:42:16.923Z,28.90
2022-11-29T14:44:56.013Z,27.42
2022-11-29T14:47:31.439Z,28.23
2022-11-29T14:50:01.151Z,29.60
2022-11-29T14:52:31.637Z,37.07
2022-11-29T14:55:29.716Z,27.98
2022-11-29T14:58:06.155Z,27.17
2022-11-29T15:00:37.754Z,28.73
2022-11-29T15:03:16.738Z,27.75
2022-11-29T15:05:48.757Z,28.75
2022-11-29T15:08:37.271Z,27.65
2022-11-29T15:11:27.497Z,27.40
2022-11-29T15:14:23.217Z,27.33
2022-11-29T15:16:58.511Z,27.42
2022-11-29T15:19:27.965Z,26.02
2022-11-29T15:22:21.110Z,26.90
2022-11-29T15:24:54.607Z,26.27
2022-11-29T15:27:22.077Z,27.17
2022-11-29T15:29:48.706Z,28.00
2022-11-29T15:32:26.398Z,25.83
2022-11-29T15:34:55.561Z,28.23
2022-11-29T15:37:26.226Z,25.95
2022-11-29T15:42:41.874Z,26.63
2022-11-29T15:45:36.843Z,26.70
2022-11-29T15:48:24.254Z,28.50
2022-11-29T15:51:16.014Z,30.33
2022-11-29T15:54:12.874Z,28.85
2022-11-29T15:56:51.953Z,28.67
2022-11-29T15:59:30.470Z,27.23
2022-11-29T16:02:00.317Z,27.25
2022-11-29T16:04:27.252Z,28.45
2022-11-29T16:06:55.439Z,26.48
2022-11-29T16:09:43.491Z,27.73
2022-11-29T16:12:14.158Z,28.60
2022-11-29T16:17:41.469Z,26.85
2022-11-29T16:20:13.769Z,27.00
2022-11-29T16:22:40.411Z,29.45
2022-11-29T16:25:16.157Z,29.05
2022-11-29T16:27:43.214Z,29.02
2022-11-29T16:30:24.726Z,28.67
2022-11-29T16:33:00.229Z,28.33
2022-11-29T16:35:29.384Z,27.63
2022-11-29T16:37:56.324Z,27.85
2022-11-29T16:40:27.178Z,29.02
2022-11-29T16:43:23.620Z,28.65
2022-11-29T16:46:30.276Z,28.33
2022-11-29T16:48:59.003Z,29.23
2022-11-29T16:51:39.898Z,29.92
2022-11-29T16:54:22.192Z,30.25
2022-11-29T16:56:50.435Z,30.30
2022-11-29T16:59:26.738Z,30.30
2022-11-29T17:01:55.099Z,29.08
2022-11-29T17:04:24.836Z,28.08
2022-11-29T17:06:56.132Z,27.33
2022-11-29T17:09:28.369Z,27.23
2022-11-29T17:11:56.175Z,26.98
2022-11-29T17:14:23.119Z,25.77
2022-11-29T17:16:49.814Z,26.25
2022-11-29T17:19:17.269Z,26.60
2022-11-29T17:21:44.190Z,27.23
2022-11-29T17:24:13.973Z,26.75
2022-11-29T17:26:41.545Z,26.20
2022-11-29T17:29:10.376Z,25.58
2022-11-29T17:31:37.062Z,26.15
2022-11-29T17:34:04.254Z,29.05
2022-11-29T17:36:31.357Z,27.52
2022-11-29T17:39:01.845Z,27.67
2022-11-29T17:41:29.437Z,27.50
2022-11-29T17:43:57.368Z,26.50
2022-11-29T17:46:27.097Z,26.92
2022-11-29T17:48:54.924Z,25.90
2022-11-29T17:54:11.107Z,26.52
2022-11-29T17:56:37.934Z,27.08
2022-11-29T17:59:05.334Z,27.25
2022-11-29T18:01:34.651Z,26.98
2022-11-29T18:04:03.137Z,28.20
2022-11-29T18:06:35.883Z,26.55
2022-11-29T18:09:04.325Z,25.25
2022-11-29T18:11:41.664Z,25.65
2022-11-29T18:14:15.411Z,26.92
2022-11-29T18:16:42.391Z,25.90
2022-11-29T18:19:12.771Z,24.48
2022-11-29T18:21:39.672Z,23.52
2022-11-29T18:24:07.148Z,24.65
2022-11-29T18:26:35.189Z,24.20
2022-11-29T18:29:02.157Z,23.45
2022-11-29T18:31:31.463Z,25.50
2022-11-29T18:34:00.352Z,24.10
2022-11-29T18:36:29.981Z,24.35
2022-11-29T18:39:01.615Z,23.65
2022-11-29T18:41:29.920Z,23.17
2022-11-29T18:44:07.200Z,23.65
2022-11-29T18:46:36.554Z,23.83
2022-11-29T18:49:05.909Z,24.95
2022-11-29T18:51:33.527Z,23.02
2022-11-29T18:54:01.032Z,23.52
2022-11-29T18:56:30.141Z,22.92
2022-11-29T18:59:02.037Z,25.20
2022-11-29T19:01:30.761Z,22.83
2022-11-29T19:03:59.447Z,22.98
2022-11-29T19:06:38.602Z,22.50
2022-11-29T19:09:07.957Z,22.58
2022-11-29T19:11:34.954Z,22.98
2022-11-29T19:14:04.797Z,22.55
2022-11-29T19:16:33.224Z,22.98
2022-11-29T19:19:01.110Z,23.33
2022-11-29T19:21:29.904Z,24.10
2022-11-29T19:23:58.833Z,24.17
2022-11-29T19:26:27.193Z,24.35
2022-11-29T19:28:54.096Z,24.33
2022-11-29T19:31:24.809Z,25.75
2022-11-29T19:33:52.635Z,25.17
2022-11-29T19:36:23.516Z,25.13
2022-11-29T19:38:53.915Z,25.73
2022-11-29T19:41:26.640Z,25.42
2022-11-29T19:43:54.051Z,28.45
2022-11-29T19:46:23.464Z,28.17
2022-11-29T19:48:53.159Z,27.80
2022-11-29T19:51:21.082Z,27.45
2022-11-29T19:53:47.695Z,27.45
2022-11-29T19:56:17.127Z,27.48
2022-11-29T19:58:44.483Z,26.40
2022-11-29T20:01:18.713Z,27.73
2022-11-29T20:03:45.623Z,26.10
2022-11-29T20:06:13.725Z,27.55
2022-11-29T20:08:41.111Z,28.33
2022-11-29T20:11:15.778Z,26.75
2022-11-29T20:13:44.009Z,28.13
2022-11-29T20:16:17.142Z,29.00
2022-11-29T20:18:50.417Z,30.02
2022-11-29T20:21:18.699Z,27.63
2022-11-29T20:23:45.223Z,28.58
2022-11-29T20:26:17.734Z,27.95
2022-11-29T20:28:45.070Z,27.90
2022-11-29T20:31:15.387Z,29.00
2022-11-29T20:33:43.427Z,29.05
2022-11-29T20:36:29.133Z,29.55
2022-11-29T20:39:05.757Z,29.58
2022-11-29T20:41:48.327Z,28.45
2022-11-29T20:44:20.467Z,28.30
2022-11-29T20:46:47.264Z,29.02
2022-11-29T20:49:15.167Z,29.40
2022-11-29T20:51:51.478Z,28.13
2022-11-29T20:54:19.427Z,26.77
2022-11-29T20:56:45.965Z,28.30
2022-11-29T20:59:12.497Z,27.23
2022-11-29T21:01:39.193Z,27.63
2022-11-29T21:04:05.826Z,27.88
2022-11-29T21:06:36.117Z,27.02
2022-11-29T21:09:02.891Z,28.17
2022-11-29T21:11:29.818Z,26.35
2022-11-29T21:13:57.145Z,26.83
2022-11-29T21:16:28.393Z,28.35
2022-11-29T21:18:58.440Z,26.17
2022-11-29T21:21:33.330Z,27.45
2022-11-29T21:24:06.743Z,26.85
2022-11-29T21:26:41.981Z,26.17
2022-11-29T21:29:17.316Z,75.85
2022-11-29T21:31:45.613Z,30.27
2022-11-29T21:34:12.367Z,28.83
2022-11-29T21:36:39.549Z,28.15
2022-11-29T21:39:07.784Z,27.98
2022-11-29T21:41:34.474Z,31.13
2022-11-29T21:44:08.726Z,30.27
2022-11-29T21:46:35.882Z,27.75
2022-11-29T21:49:02.612Z,29.80
2022-11-29T21:51:29.212Z,30.42
2022-11-29T21:53:55.916Z,30.75
2022-11-29T21:56:22.543Z,30.48
2022-11-29T21:58:49.091Z,28.10
2022-11-29T22:01:18.488Z,29.05
2022-11-29T22:03:45.796Z,27.80
2022-11-29T22:06:14.998Z,28.92
2022-11-29T22:08:42.263Z,28.15
2022-11-29T22:11:11.787Z,28.20
2022-11-29T22:13:59.910Z,29.55
2022-11-29T22:16:26.870Z,28.70
2022-11-29T22:18:53.704Z,26.83
2022-11-29T22:21:20.826Z,26.42
2022-11-29T22:23:48.152Z,27.88
2022-11-29T22:26:14.660Z,29.73
2022-11-29T22:28:41.170Z,26.90
2022-11-29T22:31:12.551Z,27.00
2022-11-29T22:33:39.714Z,28.60
2022-11-29T22:36:08.968Z,26.58
2022-11-29T22:38:35.817Z,27.20
2022-11-29T22:41:04.722Z,25.40
2022-11-29T22:43:32.127Z,25.77
2022-11-29T22:46:05.694Z,25.00
2022-11-29T22:48:38.182Z,25.50
2022-11-29T22:51:12.795Z,28.27
2022-11-29T22:53:41.577Z,25.75
2022-11-29T22:56:11.039Z,26.75
2022-11-29T22:58:38.117Z,26.00
2022-11-29T23:01:14.819Z,26.35
2022-11-29T23:03:48.177Z,26.63
2022-11-29T23:06:17.858Z,25.67
2022-11-29T23:08:45.836Z,25.23
2022-11-29T23:11:15.794Z,25.80
2022-11-29T23:13:43.871Z,26.70
2022-11-29T23:16:13.284Z,25.85
2022-11-29T23:18:42.238Z,25.13
2022-11-29T23:21:11.885Z,26.13
2022-11-29T23:23:38.725Z,24.00
2022-11-29T23:26:06.801Z,24.55
2022-11-29T23:28:34.711Z,24.77
2022-11-29T23:31:01.946Z,24.20
2022-11-29T23:33:28.642Z,25.60
2022-11-29T23:36:03.037Z,25.40
2022-11-29T23:38:30.131Z,24.42
2022-11-29T23:40:56.991Z,24.35
2022-11-29T23:43:23.673Z,24.52
2022-11-29T23:45:50.685Z,24.25
2022-11-29T23:48:17.492Z,24.35
2022-11-29T23:50:44.010Z,22.77
2022-11-29T23:53:15.318Z,24.38
2022-11-29T23:55:42.327Z,24.02
2022-11-29T23:58:10.183Z,23.17
